Tiempo atmosférico en la estación meteorológica de Montoro, Córdoba (155 m.)



Fecha
DESCASC
Temp. máxima en grados centígrados (hora)
DESCASC
Temp. mínima en grados centígrados (hora)
DESCASC
Temp. media en grados centígrados
DESCASC
Racha de viento máxima en m/sg (hora)
DESCASC
Velocidad máxima media en intervalos de 10 minutos(hora)
DESCASC
Precipitaciones diarias en mm
DESCASC
Precipitaciones de 00:00 a 06:00 en mm
DESCASC
Precipitaciones de 06:00 a 12:00 en mm
DESCASC
Precipitaciones de 12:00 a 18:00 en mm
DESCASC
Precipitaciones de 18:00 a 24:00 en mm
DESCASC
25-01-2020 10.8 (00:00) 8.8 (23:59) 9.8 5.56 (10:20) 2.78 (10:20) 20.2 0.2 4.2 8.8 7
24-01-2020 15.8 (14:30) 8.8 (06:30) 12.3 5.83 (11:40) 3.33 (12:00) 8.4 5.8 0 0 2.6
23-01-2020 12.4 (17:00) 7.3 (00:30) 9.8 6.39 (08:30) 3.89 (08:30) 2.8 0.4 0.2 1.6 0.6
22-01-2020 14.3 (15:40) 5.9 (00:00) 10.1 7.78 (18:30) 4.72 (18:30) 2.6 1 0 0 1.6
21-01-2020 11.7 (14:50) 5.9 (00:00) 8.8 10.28 (12:30) 5.28 (12:10) 0 0 0 0 0
20-01-2020 11.6 (17:00) 6 (00:00) 8.8 12.5 (11:10) 6.39 (14:20) 0 0 0 0 0
19-01-2020 12.4 (14:10) 7.9 (00:00) 10.1 10.28 (22:50) 5 (22:50) 0.8 0 0 0.8 0
18-01-2020 11.2 (15:20) 6.7 (00:00) 8.9 4.44 (12:10) 2.5 (06:40) 7.8 0 2.4 1.6 3.8
17-01-2020 18.2 (15:50) 4.4 (00:00) 11.3 3.06 (14:50) 1.39 (07:30) 0 0 0 0 0
16-01-2020 18 (16:00) 2.5 (00:00) 10.3 5.28 (11:00) 2.5 (16:20) 0 0 0 0 0
15-01-2020 16.5 (16:30) 0.4 (00:00) 8.5 4.17 (13:20) 1.94 (13:10) 0 0 0 0 0
14-01-2020 14.2 (16:10) -0.7 (-00:0) 6.7 4.44 (16:10) 2.22 (16:20) 0 0 0 0 0
13-01-2020 -- (--) -- (--) -- -- (--) -- (--) -- 0 -- 0 0
12-01-2020 16.3 (17:20) -0.9 (-00:0) 7.7 3.33 (11:50) 1.67 (11:40) 0 0 0 0 0
11-01-2020 16.7 (16:10) 0.1 (00:00) 8.4 4.72 (15:10) 2.5 (12:50) 0 0 0 0 0
10-01-2020 16.3 (15:30) 4.8 (00:00) 10.5 8.61 (14:50) 4.17 (16:20) 0 0 0 0 0
09-01-2020 15.1 (16:10) 0.5 (00:00) 7.8 3.89 (16:00) 2.5 (16:30) 0 0 0 0 0
08-01-2020 17.6 (17:10) -0.5 (-00:0) 8.6 4.44 (11:30) 2.22 (15:10) 0.2 0 0.2 0 0
07-01-2020 17.6 (16:40) 0.3 (00:00) 9 4.44 (11:20) 2.5 (11:30) 0.2 0.2 0 0 0
06-01-2020 16.1 (17:00) 0.8 (00:00) 8.5 2.22 (14:30) 1.39 (13:00) 0 0 0 0 0
05-01-2020 16 (17:10) 0.3 (00:00) 8.2 3.89 (14:40) 1.94 (14:40) 0.2 0 0.2 0 0
04-01-2020 14.5 (16:20) 3 (00:00) 8.8 5.28 (12:50) 2.78 (12:50) 0 0 0 0 0
03-01-2020 13.9 (16:20) 2 (00:00) 7.9 2.78 (11:40) 1.67 (17:50) 0.2 0 0.2 0 0
02-01-2020 15.8 (15:40) 1.4 (00:00) 8.6 2.78 (15:50) 1.94 (15:50) 0.2 0 0.2 0 0
01-01-2020 17.7 (17:10) 1.6 (00:00) 9.7 3.06 (12:40) 1.67 (12:40) 0.2 0 0.2 0 0
31-12-2019 16.9 (17:00) 1.4 (00:00) 9.1 3.89 (13:10) 1.94 (14:00) 0.2 0 0.2 0 0
30-12-2019 -- (--) -- (--) -- -- (--) -- (--) -- 0 0.2 -- 0
29-12-2019 17.7 (16:30) 2.8 (00:00) 10.3 3.89 (13:30) 1.39 (13:50) 0.4 0.2 0.2 0 0
28-12-2019 20.4 (15:50) 3.6 (00:00) 12 3.61 (16:10) 2.22 (13:30) 0.2 0 0.2 0 0

Gráficas

Temp. máximas Temp. mínimas Temp. medias Precipitaciones Rachas de viento máximas Velocidades máximas media en intervalos de 10 minutos

Datos horarios

Fecha y hora oficial Temperatura (ºC) Velocidad del viento (km/h) Dirección del viento Racha (km/h) Dirección de racha Precipitación (mm) Presión (hPa) Tendencia (hPa) Humedad (%)
2020-01-26 23:00:00 -- -- -- -- -- -- -- -- --
2020-01-26 22:00:00 6.5 0 Calma 4 Norte 0 -- -- 95
2020-01-26 21:00:00 7.6 2 Norte 3 Norte 0 -- -- 94
2020-01-26 20:00:00 8.8 0 Calma 5 Norte 0 -- -- 92
2020-01-26 19:00:00 10.4 0 Calma 6 Noroeste 0 -- -- 88
2020-01-26 18:00:00 12.5 3 Noroeste 11 Oeste 0 -- -- 80
2020-01-26 17:00:00 12.9 9 Oeste 14 Oeste 0 -- -- 80
2020-01-26 16:00:00 12.9 5 Sudoeste 13 Sur 0 -- -- 80
2020-01-26 15:00:00 11.3 9 Sur 16 Sur 0 -- -- 87
2020-01-26 14:00:00 10.4 6 Sudoeste 13 Sudoeste 0 -- -- 92
2020-01-26 13:00:00 9.9 9 Sudoeste 14 Sudoeste 0 -- -- 94
2020-01-26 12:00:00 9.9 5 Oeste 10 Sudoeste 0 -- -- 97
2020-01-26 11:00:00 9.1 5 Oeste 14 Sudoeste 0 -- -- 98
2020-01-26 10:00:00 8.8 7 Oeste 12 Oeste 0 -- -- 99
2020-01-26 09:00:00 8.7 4 Oeste 8 Oeste 0 -- -- 99
2020-01-26 08:00:00 9 0 Calma 8 Noroeste 0 -- -- 99
2020-01-26 07:00:00 9.3 4 Noroeste 9 Noroeste 0 -- -- 99
2020-01-26 06:00:00 9.5 3 Noroeste 9 Noroeste 0 -- -- 99
2020-01-26 05:00:00 9.4 0 Calma 3 Este 0 -- -- 99
2020-01-26 04:00:00 9.5 0 Calma 4 Oeste 0 -- -- 98
2020-01-26 03:00:00 9.3 2 Noroeste 3 Noroeste 0 -- -- 98
2020-01-26 02:00:00 9.2 0 Calma 3 Norte 0 -- -- 98
2020-01-26 01:00:00 8.9 0 Calma 4 Norte 0 -- -- 98
2020-01-26 00:00:00 8.8 0 Calma 3 Norte 0 -- -- 97
2020-01-25 23:00:00 9.7 0 Calma 2 Norte 0.2 -- -- 97
2020-01-25 22:00:00 9.7 0 Calma 4 Sur 0 -- -- 97
2020-01-25 21:00:00 9.7 2 Sur 6 Sudoeste 1.2 -- -- 97
2020-01-25 20:00:00 9.7 3 Sur 7 Este 4.4 -- -- 96
2020-01-25 19:00:00 9.9 4 Este 9 Este 1.2 -- -- 95
2020-01-25 18:00:00 10.3 2 Sudeste 7 Sudeste 0.6 -- -- 94
2020-01-25 17:00:00 10.5 3 Sudeste 10 Este 0.2 -- -- 93
2020-01-25 16:00:00 10.4 4 Este 14 Este 0.6 -- -- 93
2020-01-25 15:00:00 10.2 0 Calma 8 Oeste 4 -- -- 94
2020-01-25 14:00:00 10.1 4 Nordeste 14 Este 0.8 -- -- 93
2020-01-25 13:00:00 10.5 5 Nordeste 14 Nordeste 2.6 -- -- 94
2020-01-25 12:00:00 10.5 6 Nordeste 15 Este 0.8 -- -- 94
2020-01-25 11:00:00 10.3 7 Este 20 Este 0.6 -- -- 95
2020-01-25 10:00:00 10.1 7 Este 16 Este 0.2 -- -- 95
2020-01-25 09:00:00 10 9 Nordeste 16 Este 0.8 -- -- 95
2020-01-25 08:00:00 9.9 4 Este 11 Este 1.4 -- -- 96
2020-01-25 07:00:00 10.1 0 Calma 8 Nordeste 0.4 -- -- 95
2020-01-25 06:00:00 10.3 4 Nordeste 16 Nordeste 0 -- -- 95
2020-01-25 05:00:00 9.9 5 Este 11 Nordeste 0 -- -- 97
2020-01-25 04:00:00 9.7 0 Calma 6 Sur 0 -- -- 96
2020-01-25 03:00:00 9.6 0 Calma 4 Noroeste 0 -- -- 96
2020-01-25 02:00:00 10.4 3 Sudeste 6 Sur 0 -- -- 96
2020-01-25 01:00:00 10.8 3 Sur 9 Sur 0.2 -- -- 96
2020-01-25 00:00:00 10.8 3 Sudeste 6 Sudeste 0.8 -- -- 95
2020-01-24 23:00:00 11 2 Oeste 8 Sur 0.2 -- -- 94
2020-01-24 22:00:00 11.1 4 Norte 10 Noroeste 1.4 -- -- 93
2020-01-24 21:00:00 11.7 6 Noroeste 10 Noroeste 0.2 -- -- 89
2020-01-24 20:00:00 12.3 0 Calma 5 Nordeste 0 -- -- 84
2020-01-24 19:00:00 12.9 0 Calma 3 Norte 0 -- -- 81
2020-01-24 18:00:00 14.1 0 Calma 9 Este 0 -- -- 73
2020-01-24 17:00:00 14.8 4 Este 8 Este 0 -- -- 65
2020-01-24 16:00:00 15.2 3 Noroeste 7 Este 0 -- -- 64
2020-01-24 15:00:00 15.7 4 Sudeste 13 Este 0 -- -- 62
2020-01-24 14:00:00 15.1 7 Este 16 Este 0 -- -- 66
2020-01-24 13:00:00 14.5 7 Sudeste 21 Este 0 -- -- 69
2020-01-24 12:00:00 12.9 12 Este 21 Este 0 -- -- 80
2020-01-24 11:00:00 11.1 6 Este 15 Este 0 -- -- 92
2020-01-24 10:00:00 9.5 8 Este 17 Este 0 -- -- 97
2020-01-24 09:00:00 9.2 4 Sudeste 10 Sudeste 0 -- -- 98
2020-01-24 08:00:00 9.1 4 Sudeste 6 Sudeste 0 -- -- 98
2020-01-24 07:00:00 8.9 3 Sudeste 6 Sudeste 0 -- -- 98
2020-01-24 06:00:00 8.9 2 Sur 4 Este 0 -- -- 98
2020-01-24 05:00:00 9.1 0 Calma 4 Noroeste 0.2 -- -- 97
2020-01-24 04:00:00 9.2 2 Sudoeste 5 Sudoeste 0.6 -- -- 97
2020-01-24 03:00:00 9.3 2 Sur 5 Sur 1.8 -- -- 97
2020-01-24 02:00:00 9.5 0 Calma 9 Noroeste 1.8 -- -- 96
2020-01-24 01:00:00 9.6 5 Noroeste 9 Sudoeste 1.4 -- -- 96
2020-01-24 00:00:00 9.7 3 Noroeste 10 Oeste 0.4 -- -- 96
2020-01-23 23:00:00 9.8 2 Noroeste 8 Sur 0.2 -- -- 95
2020-01-23 22:00:00 10 3 Noroeste 7 Noroeste 0 -- -- 95
2020-01-23 21:00:00 9.8 2 Sudoeste 5 Sudoeste 0 -- -- 94
2020-01-23 20:00:00 10 0 Calma 4 Noroeste 0 -- -- 92
2020-01-23 19:00:00 11 0 Calma 9 Sur 0 -- -- 90
2020-01-23 18:00:00 12 4 Sur 9 Sudeste 0 -- -- 88
2020-01-23 17:00:00 12.4 2 Sudeste 7 Sudeste 0 -- -- 87
2020-01-23 16:00:00 12 3 Este 9 Norte 0.6 -- -- 86
2020-01-23 15:00:00 11.5 3 Sudoeste 16 Nordeste 0.2 -- -- 84
2020-01-23 14:00:00 11 9 Nordeste 16 Nordeste 0.8 -- -- 84
2020-01-23 13:00:00 11.6 3 Sudeste 12 Este 0 -- -- 77
2020-01-23 12:00:00 10.8 6 Este 20 Este 0 -- -- 81
2020-01-23 11:00:00 9.4 10 Este 18 Este 0 -- -- 87
2020-01-23 10:00:00 8.6 5 Sudeste 12 Este 0 -- -- 90
2020-01-23 09:00:00 8.6 8 Nordeste 23 Este 0.2 -- -- 87
2020-01-23 08:00:00 7.9 5 Este 12 Nordeste 0 -- -- 92
2020-01-23 07:00:00 8 4 Este 13 Este 0 -- -- 93
2020-01-23 06:00:00 8.1 5 Sudeste 12 Sudeste 0 -- -- 95
2020-01-23 05:00:00 8.2 7 Sudeste 12 Sudeste 0.2 -- -- 96
2020-01-23 04:00:00 7.8 3 Sudeste 9 Sudoeste 0 -- -- 97
2020-01-23 03:00:00 7.5 0 Calma 3 Norte 0.2 -- -- 97
2020-01-23 02:00:00 7.5 0 Calma 3 Sudoeste 0 -- -- 97
2020-01-23 01:00:00 7.3 0 Calma 4 Sudoeste 0 -- -- 96
2020-01-23 00:00:00 7.5 2 Oeste 5 Sur 0 -- -- 95
2020-01-22 23:00:00 8.2 3 Sur 5 Sur 0 -- -- 95
2020-01-22 22:00:00 8.7 0 Calma 5 Sur 0 -- -- 94
2020-01-22 21:00:00 9.1 0 Calma 3 Sudoeste 0 -- -- 92
2020-01-22 20:00:00 9.3 0 Calma 8 Sudoeste 0.2 -- -- 90
2020-01-22 19:00:00 10.5 4 Norte 28 Sur 1.4 -- -- 83
2020-01-22 18:00:00 12.8 2 Noroeste 4 Norte 0 -- -- 77
2020-01-22 17:00:00 13.6 0 Calma 6 Este 0 -- -- 73
2020-01-22 16:00:00 14.1 4 Este 13 Este 0 -- -- 62
2020-01-22 15:00:00 13.6 6 Sudeste 10 Sudeste 0 -- -- 65
2020-01-22 14:00:00 12.8 2 Sur 5 Sur 0 -- -- 75
2020-01-22 13:00:00 11.1 2 Sur 5 Sudoeste 0 -- -- 84
2020-01-22 12:00:00 9.6 3 Sur 9 Sudeste 0 -- -- 92
2020-01-22 11:00:00 8 0 Calma 3 Sudoeste 0 -- -- 96
2020-01-22 10:00:00 7 0 Calma 5 Sudoeste 0 -- -- 97
2020-01-22 09:00:00 6 2 Sudoeste 4 Sudoeste 0 -- -- 96
2020-01-22 08:00:00 6.3 0 Calma 3 Noroeste 0 -- -- 95
2020-01-22 07:00:00 7.3 0 Calma 8 Sudeste 0 -- -- 94
2020-01-22 06:00:00 7.4 2 Sudeste 8 Sudeste 0 -- -- 94
2020-01-22 05:00:00 7.5 2 Este 10 Sudeste 0 -- -- 94
2020-01-22 04:00:00 7.4 2 Sudeste 8 Sudeste 0 -- -- 93
2020-01-22 03:00:00 7.7 4 Sur 11 Sudeste 0.2 -- -- 92
2020-01-22 02:00:00 7.9 7 Este 14 Este 0.2 -- -- 91
2020-01-22 01:00:00 7.8 5 Este 15 Este 0.6 -- -- 90
2020-01-22 00:00:00 7.2 0 Calma 5 Sudoeste 0 -- -- 90
2020-01-21 23:00:00 6.4 0 Calma 2 Sudeste 0 -- -- 89
2020-01-21 22:00:00 6.1 0 Calma 5 Nordeste 0 -- -- 86
2020-01-21 21:00:00 7.5 3 Nordeste 5 Nordeste 0 -- -- 81
2020-01-21 20:00:00 9.4 0 Calma 12 Este 0 -- -- 73
2020-01-21 19:00:00 10.2 4 Nordeste 18 Nordeste 0 -- -- 69
2020-01-21 18:00:00 10.8 10 Nordeste 20 Nordeste 0 -- -- 65
2020-01-21 17:00:00 11.3 7 Nordeste 18 Este 0 -- -- 64
2020-01-21 16:00:00 11.5 6 Nordeste 22 Este 0 -- -- 62
2020-01-21 15:00:00 11.7 12 Este 26 Este 0 -- -- 60
2020-01-21 14:00:00 11 9 Nordeste 27 Nordeste 0 -- -- 63
2020-01-21 13:00:00 10.2 10 Este 37 Nordeste 0 -- -- 64
2020-01-21 12:00:00 9.9 17 Nordeste 34 Este 0 -- -- 65
2020-01-21 11:00:00 9.2 11 Este 28 Nordeste 0 -- -- 67
2020-01-21 10:00:00 9.2 8 Nordeste 28 Este 0 -- -- 66
2020-01-21 09:00:00 8.5 8 Nordeste 19 Este 0 -- -- 70
2020-01-21 08:00:00 8.6 4 Nordeste 20 Nordeste 0 -- -- 70
2020-01-21 07:00:00 8.3 11 Nordeste 20 Este 0 -- -- 70
2020-01-21 06:00:00 7.7 5 Nordeste 16 Nordeste 0 -- -- 71
2020-01-21 05:00:00 8.2 5 Este 21 Este 0 -- -- 70
2020-01-21 04:00:00 8.3 9 Nordeste 27 Nordeste 0 -- -- 70
2020-01-21 03:00:00 8.7 7 Nordeste 16 Norte 0 -- -- 68
2020-01-21 02:00:00 8.8 5 Nordeste 17 Nordeste 0 -- -- 68
2020-01-21 01:00:00 9.1 5 Nordeste 30 Nordeste 0 -- -- 67
2020-01-21 00:00:00 9.6 12 Este 26 Este 0 -- -- 66
2020-01-20 23:00:00 10 9 Nordeste 30 Nordeste 0 -- -- 65
2020-01-20 22:00:00 10.5 10 Este 28 Nordeste 0 -- -- 61
2020-01-20 21:00:00 10.2 6 Este 32 Este 0 -- -- 63
2020-01-20 20:00:00 10.2 7 Este 30 Nordeste 0 -- -- 63
2020-01-20 19:00:00 10 11 Nordeste 36 Nordeste 0 -- -- 63
2020-01-20 18:00:00 10.5 17 Nordeste 40 Nordeste 0 -- -- 60
2020-01-20 17:00:00 11.6 14 Nordeste 38 Este 0 -- -- 56
2020-01-20 16:00:00 11.2 11 Nordeste 38 Nordeste 0 -- -- 56
2020-01-20 15:00:00 10.9 19 Nordeste 43 Nordeste 0 -- -- 54
2020-01-20 14:00:00 10.8 19 Este 41 Nordeste 0 -- -- 53
2020-01-20 13:00:00 10.2 20 Este 37 Nordeste 0 -- -- 55
2020-01-20 12:00:00 8.3 14 Este 45 Nordeste 0 -- -- 56
2020-01-20 11:00:00 7.9 15 Este 33 Este 0 -- -- 54
2020-01-20 10:00:00 7 17 Este 31 Este 0 -- -- 54
2020-01-20 09:00:00 6.3 8 Este 34 Este 0 -- -- 59
2020-01-20 08:00:00 6 13 Nordeste 32 Este 0 -- -- 62
2020-01-20 07:00:00 6.5 8 Nordeste 31 Nordeste 0 -- -- 59
2020-01-20 06:00:00 6.8 9 Nordeste 30 Este 0 -- -- 55
2020-01-20 05:00:00 7.3 14 Nordeste 35 Nordeste 0 -- -- 50
2020-01-20 04:00:00 7.6 14 Nordeste 31 Nordeste 0 -- -- 50
2020-01-20 03:00:00 7.3 4 Nordeste 14 Este 0 -- -- 54
2020-01-20 02:00:00 7.2 3 Nordeste 23 Nordeste 0 -- -- 61
2020-01-20 01:00:00 7.5 9 Nordeste 28 Norte 0 -- -- 67
2020-01-20 00:00:00 7.9 12 Nordeste 32 Nordeste 0 -- -- 67
2020-01-19 23:00:00 8 12 Nordeste 37 Este 0 -- -- 68
2020-01-19 22:00:00 8.3 10 Nordeste 34 Norte 0 -- -- 70
2020-01-19 21:00:00 8.5 13 Nordeste 36 Sudeste 0 -- -- 70
2020-01-19 20:00:00 8.9 8 Nordeste 22 Norte 0 -- -- 70
2020-01-19 19:00:00 9.5 8 Nordeste 32 Nordeste 0 -- -- 68
2020-01-19 18:00:00 10.7 9 Nordeste 29 Norte 0 -- -- 64
2020-01-19 17:00:00 11.4 2 Norte 18 Norte 0 -- -- 71
2020-01-19 16:00:00 11.1 8 Norte 26 Norte 0.2 -- -- 73
2020-01-19 15:00:00 10.8 5 Norte 28 Norte 0.6 -- -- 77
2020-01-19 14:00:00 12.3 6 Noroeste 15 Norte 0 -- -- 68
2020-01-19 13:00:00 11 5 Norte 22 Noroeste 0 -- -- 73
2020-01-19 12:00:00 11.3 12 Noroeste 26 Noroeste 0 -- -- 75
2020-01-19 11:00:00 11 9 Oeste 17 Oeste 0 -- -- 83
2020-01-19 10:00:00 9.3 5 Noroeste 10 Noroeste 0 -- -- 94
2020-01-19 09:00:00 8.1 3 Noroeste 8 Oeste 0 -- -- 96
2020-01-19 08:00:00 8.6 3 Noroeste 9 Oeste 0 -- -- 96
2020-01-19 07:00:00 9 5 Noroeste 8 Noroeste 0 -- -- 97
2020-01-19 06:00:00 9.3 4 Noroeste 10 Noroeste 0 -- -- 98
2020-01-19 05:00:00 9.3 5 Norte 12 Norte 0 -- -- 99
2020-01-19 04:00:00 9.4 2 Noroeste 10 Oeste 0 -- -- 99
2020-01-19 03:00:00 10.1 5 Noroeste 15 Oeste 0 -- -- 98
2020-01-19 02:00:00 11 8 Noroeste 19 Oeste 0 -- -- 99
2020-01-19 01:00:00 11.3 7 Oeste 16 Noroeste 0 -- -- 98
2020-01-19 00:00:00 10.8 4 Noroeste 7 Noroeste 0 -- -- 98
2020-01-18 23:00:00 10.7 2 Noroeste 6 Oeste 0 -- -- 98
2020-01-18 22:00:00 10.6 0 Calma 4 Nordeste 0 -- -- 97
2020-01-18 21:00:00 10.5 0 Calma 10 Sudeste 1 -- -- 97
2020-01-18 20:00:00 10.7 0 Calma 4 Noroeste 1.6 -- -- 96
2020-01-18 19:00:00 10.8 0 Calma 5 Sudeste 1.2 -- -- 96
2020-01-18 18:00:00 10.9 0 Calma 4 Sudeste 0.2 -- -- 95
2020-01-18 17:00:00 11 3 Este 6 Este 0.6 -- -- 94
2020-01-18 16:00:00 11.1 3 Este 10 Este 0.2 -- -- 94
2020-01-18 15:00:00 11 4 Este 8 Nordeste 0.4 -- -- 93
2020-01-18 14:00:00 10.8 4 Nordeste 10 Nordeste 0.2 -- -- 93
2020-01-18 13:00:00 10.3 5 Este 16 Este 0 -- -- 94
2020-01-18 12:00:00 9.8 8 Este 15 Este 0.2 -- -- 95
2020-01-18 11:00:00 9.1 6 Este 11 Este 0.4 -- -- 96
2020-01-18 10:00:00 8.4 6 Este 12 Este 1 -- -- 97
2020-01-18 09:00:00 7.7 3 Este 7 Sudoeste 0.8 -- -- 97
2020-01-18 08:00:00 7.6 0 Calma 9 Oeste 0 -- -- 96
2020-01-18 07:00:00 7.4 3 Oeste 15 Sudeste 0 -- -- 96
2020-01-18 06:00:00 6.9 0 Calma 4 Noroeste 0 -- -- 96
2020-01-18 05:00:00 6.8 0 Calma 3 Sur 0 -- -- 96
2020-01-18 04:00:00 6.8 0 Calma 4 Sudeste 0 -- -- 96
2020-01-18 03:00:00 6.8 0 Calma 3 Norte 0 -- -- 95
2020-01-18 02:00:00 6.8 0 Calma 3 Norte 0 -- -- 95
2020-01-18 01:00:00 7.1 0 Calma 5 Noroeste 0 -- -- 94
2020-01-18 00:00:00 7.5 0 Calma 3 Noroeste 0 -- -- 93
2020-01-17 23:00:00 8.1 0 Calma 2 Sudeste 0 -- -- 91
2020-01-17 22:00:00 9.1 0 Calma 4 Noroeste 0 -- -- 89
2020-01-17 21:00:00 10 0 Calma 4 Noroeste 0 -- -- 86
2020-01-17 20:00:00 11.5 3 Norte 6 Sudoeste 0 -- -- 80
2020-01-17 19:00:00 14.2 4 Noroeste 6 Noroeste 0 -- -- 72
2020-01-17 18:00:00 16.6 5 Noroeste 6 Noroeste 0 -- -- 63
2020-01-17 17:00:00 17.2 4 Oeste 11 Sudoeste 0 -- -- 60
2020-01-17 16:00:00 18.1 3 Sur 10 Oeste 0 -- -- 59
2020-01-17 15:00:00 17.2 5 Noroeste 11 Noroeste 0 -- -- 62
2020-01-17 14:00:00 16 5 Sudoeste 10 Sudoeste 0 -- -- 63
2020-01-17 13:00:00 14.4 3 Sur 10 Sudeste 0 -- -- 67
2020-01-17 12:00:00 11.8 5 Sudeste 10 Este 0 -- -- 71
2020-01-17 11:00:00 9.4 3 Sudeste 6 Sudeste 0 -- -- 80
2020-01-17 10:00:00 8.1 0 Calma 6 Sudeste 0 -- -- 83
2020-01-17 09:00:00 8.1 5 Sudeste 9 Este 0 -- -- 80
2020-01-17 08:00:00 7.8 4 Sudeste 9 Este 0 -- -- 82
2020-01-17 07:00:00 6.6 4 Sudeste 8 Sudeste 0 -- -- 92
2020-01-17 06:00:00 6.2 2 Sudeste 4 Sudeste 0 -- -- 92
2020-01-17 05:00:00 5.7 2 Noroeste 4 Norte 0 -- -- 93
2020-01-17 04:00:00 5.4 0 Calma 3 Noroeste 0 -- -- 94
2020-01-17 03:00:00 4.9 0 Calma 2 Este 0 -- -- 94
2020-01-17 02:00:00 4.8 0 Calma 3 Sudeste 0 -- -- 93
2020-01-17 01:00:00 4.5 0 Calma 2 Sur 0 -- -- 93
2020-01-17 00:00:00 4.7 2 Noroeste 4 Noroeste 0 -- -- 92
2020-01-16 23:00:00 5.3 0 Calma 4 Norte 0 -- -- 90
2020-01-16 22:00:00 5.9 2 Norte 4 Norte 0 -- -- 88
2020-01-16 21:00:00 6.7 0 Calma 5 Noroeste 0 -- -- 85
2020-01-16 20:00:00 8.4 2 Norte 5 Norte 0 -- -- 77
2020-01-16 19:00:00 11.3 0 Calma 6 Oeste 0 -- -- 68
2020-01-16 18:00:00 15.5 2 Oeste 10 Sudoeste 0 -- -- 54
2020-01-16 17:00:00 17.6 7 Sudoeste 17 Sudoeste 0 -- -- 45
2020-01-16 16:00:00 18 4 Sudoeste 14 Oeste 0 -- -- 43
2020-01-16 15:00:00 16.9 4 Sudeste 9 Sur 0 -- -- 45
2020-01-16 14:00:00 15.6 4 Sudeste 13 Sudeste 0 -- -- 48
2020-01-16 13:00:00 13.5 6 Este 17 Este 0 -- -- 55
2020-01-16 12:00:00 11 6 Este 18 Este 0 -- -- 65
2020-01-16 11:00:00 8.8 6 Este 19 Sudeste 0 -- -- 76
2020-01-16 10:00:00 4.3 3 Sur 6 Sur 0 -- -- 94
2020-01-16 09:00:00 2.5 0 Calma 5 Noroeste 0 -- -- 94
2020-01-16 08:00:00 2.9 0 Calma 6 Sur 0 -- -- 91
2020-01-16 07:00:00 3.7 2 Sur 12 Sudeste 0 -- -- 89
2020-01-16 06:00:00 5.5 5 Sudeste 12 Sudeste 0 -- -- 90
2020-01-16 05:00:00 5.8 0 Calma 9 Sur 0 -- -- 89
2020-01-16 04:00:00 6.7 6 Sur 13 Sudeste 0 -- -- 88
2020-01-16 03:00:00 6.5 4 Sur 8 Sudeste 0 -- -- 94
2020-01-16 02:00:00 5.8 0 Calma 2 Sudoeste 0 -- -- 94
2020-01-16 01:00:00 5.7 0 Calma 3 Sur 0 -- -- 94
2020-01-16 00:00:00 5.6 0 Calma 2 Sudoeste 0 -- -- 93
2020-01-15 23:00:00 6.3 0 Calma 2 Sudoeste 0 -- -- 92
2020-01-15 22:00:00 6.9 0 Calma 2 Norte 0 -- -- 90
2020-01-15 21:00:00 8.1 0 Calma 3 Noroeste 0 -- -- 87
2020-01-15 20:00:00 10.5 2 Norte 5 Norte 0 -- -- 82
2020-01-15 19:00:00 12.8 2 Norte 4 Noroeste 0 -- -- 75
2020-01-15 18:00:00 14.8 2 Noroeste 12 Sudoeste 0 -- -- 67
2020-01-15 17:00:00 15.7 5 Oeste 11 Sudoeste 0 -- -- 60
2020-01-15 16:00:00 15.2 0 Calma 5 Sudeste 0 -- -- 57
2020-01-15 15:00:00 15.5 2 Este 8 Sur 0 -- -- 54
2020-01-15 14:00:00 13.9 4 Sur 15 Sudeste 0 -- -- 61
2020-01-15 13:00:00 12.2 4 Sudeste 9 Este 0 -- -- 68
2020-01-15 12:00:00 9.1 5 Sudeste 12 Sudeste 0 -- -- 82
2020-01-15 11:00:00 5.6 2 Sur 6 Sur 0 -- -- 97
2020-01-15 10:00:00 1.4 0 Calma 5 Norte 0 -- -- 98
2020-01-15 09:00:00 0.4 2 Noroeste 4 Norte 0 -- -- 97
2020-01-15 08:00:00 0.5 0 Calma 3 Norte 0 -- -- 97
2020-01-15 07:00:00 0.6 0 Calma 3 Sur 0 -- -- 97
2020-01-15 06:00:00 0.5 0 Calma 2 Norte 0 -- -- 96
2020-01-15 05:00:00 1.1 0 Calma 3 Norte 0 -- -- 96
2020-01-15 04:00:00 1.6 2 Norte 3 Noroeste 0 -- -- 96
2020-01-15 03:00:00 2.3 2 Norte 5 Sudoeste 0 -- -- 95
2020-01-15 02:00:00 2.6 0 Calma 3 Sudoeste 0 -- -- 95
2020-01-15 01:00:00 2.7 0 Calma 3 Sudeste 0 -- -- 94
2020-01-15 00:00:00 3.3 0 Calma 4 Norte 0 -- -- 93
2020-01-14 23:00:00 3.9 2 Norte 3 Norte 0 -- -- 92
2020-01-14 22:00:00 4.9 0 Calma 3 Norte 0 -- -- 90
2020-01-14 21:00:00 5.8 0 Calma 4 Noroeste 0 -- -- 89
2020-01-14 20:00:00 6.9 0 Calma 3 Noroeste 0 -- -- 83
2020-01-14 19:00:00 9 2 Nordeste 5 Noroeste 0 -- -- 77
2020-01-14 18:00:00 11.8 2 Noroeste 6 Sudoeste 0 -- -- 65
2020-01-14 17:00:00 13 3 Oeste 16 Oeste 0 -- -- 59
2020-01-14 16:00:00 14.1 0 Calma 5 Sudeste 0 -- -- 57
2020-01-14 15:00:00 13.2 0 Calma 7 Sur 0 -- -- 62
2020-01-14 14:00:00 11.1 5 Sur 10 Sur 0 -- -- 66
2020-01-14 13:00:00 9.4 6 Sur 10 Sur 0 -- -- 71
2020-01-14 12:00:00 7.2 5 Este 11 Sudeste 0 -- -- 84
2020-01-14 11:00:00 4.7 3 Sudeste 10 Sudeste 0 -- -- 96
2020-01-14 10:00:00 1.3 0 Calma 2 Sudoeste 0 -- -- 98
2020-01-14 09:00:00 0.3 0 Calma 2 Sudoeste 0 -- -- 97
2020-01-14 08:00:00 -0.2 0 Calma 2 Oeste 0 -- -- 97
2020-01-14 07:00:00 -0.5 0 Calma 4 Norte 0 -- -- 96
2020-01-14 06:00:00 -0.1 0 Calma 4 Norte 0 -- -- 97
2020-01-14 05:00:00 0.2 2 Norte 3 Norte 0 -- -- 96
2020-01-14 04:00:00 -0.2 0 Calma 2 Sudoeste 0 -- -- 96
2020-01-14 03:00:00 0.7 0 Calma 3 Norte 0 -- -- 95
2020-01-14 02:00:00 1.3 0 Calma 4 Norte 0 -- -- 95
2020-01-14 01:00:00 1.6 0 Calma 4 Norte 0 -- -- 94
2020-01-14 00:00:00 2.2 0 Calma 2 Norte 0 -- -- 94
2020-01-13 23:00:00 3 0 Calma 3 Este 0 -- -- 92
2020-01-13 22:00:00 4.1 0 Calma 4 Noroeste 0 -- -- 90
2020-01-13 21:00:00 5.3 0 Calma 2 Noroeste 0 -- -- 88
2020-01-13 20:00:00 6.9 3 Norte 4 Noroeste 0 -- -- 82
2020-01-13 19:00:00 9.1 2 Sudeste 5 Sur 0 -- -- 75
2020-01-13 18:00:00 12.4 4 Oeste 12 Sudoeste 0 -- -- 61
2020-01-13 17:00:00 14 5 Oeste 11 Oeste 0 -- -- 56
2020-01-13 16:00:00 14.5 3 Sudoeste 12 Sur 0 -- -- 54
2020-01-13 15:00:00 13.7 2 Norte 8 Sur 0 -- -- 55
2020-01-13 14:00:00 12.2 6 Sur 10 Sur 0 -- -- 59
2020-01-13 13:00:00 10.7 5 Sur 9 Sur 0 -- -- 65
2020-01-13 12:00:00 8.3 3 Sudeste 6 Sur 0 -- -- 82
2020-01-13 11:00:00 -- -- -- -- -- -- -- -- --
2020-01-13 10:00:00 0.4 0 Calma 2 Sudeste 0 -- -- 99
2020-01-13 09:00:00 -0.9 0 Calma 3 Norte 0 -- -- 98
2020-01-13 08:00:00 -0.9 0 Calma 2 Sudoeste 0 -- -- 97
2020-01-13 07:00:00 -1.1 0 Calma 3 Norte 0 -- -- 96
2020-01-13 06:00:00 -0.3 0 Calma 2 Norte 0 -- -- 97
2020-01-13 05:00:00 0.2 0 Calma 2 Sudeste 0 -- -- 96
2020-01-13 04:00:00 0.2 0 Calma 3 Sur 0 -- -- 96
2020-01-13 03:00:00 0.5 0 Calma 3 Norte 0 -- -- 95
2020-01-13 02:00:00 1 0 Calma 2 Norte 0 -- -- 95
2020-01-13 01:00:00 1.4 0 Calma 3 Noroeste 0 -- -- 94
2020-01-13 00:00:00 2.3 0 Calma 2 Norte 0 -- -- 93
2020-01-12 23:00:00 3 0 Calma 3 Norte 0 -- -- 91
2020-01-12 22:00:00 4.1 0 Calma 3 Norte 0 -- -- 90
2020-01-12 21:00:00 5.3 0 Calma 4 Noroeste 0 -- -- 87
2020-01-12 20:00:00 6.8 0 Calma 5 Norte 0 -- -- 82
2020-01-12 19:00:00 9.3 2 Noroeste 6 Norte 0 -- -- 72
2020-01-12 18:00:00 13.8 0 Calma 3 Sur 0 -- -- 54
2020-01-12 17:00:00 16 2 Sur 8 Sur 0 -- -- 46
2020-01-12 16:00:00 15.5 5 Sur 9 Sur 0 -- -- 52
2020-01-12 15:00:00 14.3 5 Sur 11 Sur 0 -- -- 54
2020-01-12 14:00:00 13.2 5 Sur 10 Este 0 -- -- 59
2020-01-12 13:00:00 11.5 6 Sudeste 12 Sudeste 0 -- -- 64
2020-01-12 12:00:00 8.9 4 Este 12 Este 0 -- -- 76
2020-01-12 11:00:00 4.7 3 Sur 5 Sur 0 -- -- 97
2020-01-12 10:00:00 0.7 2 Sur 4 Sur 0 -- -- 98
2020-01-12 09:00:00 -0.7 0 Calma 3 Norte 0 -- -- 97
2020-01-12 08:00:00 -0.8 0 Calma 2 Este 0 -- -- 97
2020-01-12 07:00:00 -0.7 0 Calma 0 Calma 0 -- -- 96
2020-01-12 06:00:00 -0.5 0 Calma 3 Sur 0 -- -- 96
2020-01-12 05:00:00 0.1 0 Calma 2 Noroeste 0 -- -- 95
2020-01-12 04:00:00 0.4 0 Calma 2 Oeste 0 -- -- 95
2020-01-12 03:00:00 1.1 0 Calma 2 Este 0 -- -- 95
2020-01-12 02:00:00 1.7 0 Calma 3 Norte 0 -- -- 94
2020-01-12 01:00:00 2.5 0 Calma 3 Norte 0 -- -- 94
2020-01-12 00:00:00 2.8 0 Calma 2 Sudeste 0 -- -- 92
2020-01-11 23:00:00 3.7 0 Calma 0 Calma 0 -- -- 91
2020-01-11 22:00:00 4.9 0 Calma 4 Noroeste 0 -- -- 89
2020-01-11 21:00:00 6.1 0 Calma 0 Calma 0 -- -- 85
2020-01-11 20:00:00 7.5 0 Calma 6 Norte 0 -- -- 80
2020-01-11 19:00:00 10.8 0 Calma 6 Este 0 -- -- 67
2020-01-11 18:00:00 14.6 4 Sudeste 13 Este 0 -- -- 52
2020-01-11 17:00:00 16.4 8 Sudeste 15 Este 0 -- -- 47
2020-01-11 16:00:00 16.6 6 Este 17 Este 0 -- -- 47
2020-01-11 15:00:00 16.2 7 Sudeste 17 Este 0 -- -- 50
2020-01-11 14:00:00 15.2 6 Este 14 Nordeste 0 -- -- 51
2020-01-11 13:00:00 13.2 9 Sur 15 Sudeste 0 -- -- 58
2020-01-11 12:00:00 10.8 5 Sur 8 Sur 0 -- -- 64
2020-01-11 11:00:00 7.7 3 Sur 6 Sur 0 -- -- 79
2020-01-11 10:00:00 2.6 0 Calma 5 Norte 0 -- -- 96
2020-01-11 09:00:00 0.8 3 Noroeste 4 Norte 0 -- -- 95
2020-01-11 08:00:00 0.2 2 Sur 4 Sudoeste 0 -- -- 94
2020-01-11 07:00:00 0.7 0 Calma 8 Sudoeste 0 -- -- 94
2020-01-11 06:00:00 1.6 3 Norte 6 Norte 0 -- -- 93
2020-01-11 05:00:00 1.8 0 Calma 5 Noroeste 0 -- -- 90
2020-01-11 04:00:00 3 2 Norte 8 Noroeste 0 -- -- 88
2020-01-11 03:00:00 4.3 0 Calma 10 Norte 0 -- -- 82
2020-01-11 02:00:00 5.5 5 Norte 11 Nordeste 0 -- -- 83
2020-01-11 01:00:00 5.7 0 Calma 6 Noroeste 0 -- -- 81
2020-01-11 00:00:00 5.5 4 Noroeste 7 Norte 0 -- -- 81
2020-01-10 23:00:00 6.4 0 Calma 9 Sudeste 0 -- -- 75
2020-01-10 22:00:00 7.6 3 Nordeste 11 Norte 0 -- -- 70
2020-01-10 21:00:00 10.5 5 Norte 14 Norte 0 -- -- 56
2020-01-10 20:00:00 11.9 7 Nordeste 17 Norte 0 -- -- 49
2020-01-10 19:00:00 11.1 3 Nordeste 17 Nordeste 0 -- -- 55
2020-01-10 18:00:00 14.2 8 Nordeste 24 Este 0 -- -- 41
2020-01-10 17:00:00 15.8 14 Nordeste 29 Nordeste 0 -- -- 40
2020-01-10 16:00:00 16.3 11 Nordeste 27 Este 0 -- -- 43
2020-01-10 15:00:00 15.9 14 Este 31 Este 0 -- -- 46
2020-01-10 14:00:00 14.7 6 Sudeste 14 Nordeste 0 -- -- 68
2020-01-10 13:00:00 12.7 4 Este 14 Sudeste 0 -- -- 76
2020-01-10 12:00:00 11 7 Este 14 Este 0 -- -- 83
2020-01-10 11:00:00 9 3 Sudeste 7 Este 0 -- -- 94
2020-01-10 10:00:00 7.5 0 Calma 3 Sur 0 -- -- 96
2020-01-10 09:00:00 7 0 Calma 3 Sudeste 0 -- -- 96
2020-01-10 08:00:00 6.8 0 Calma 0 Calma 0 -- -- 96
2020-01-10 07:00:00 6.7 0 Calma 3 Sur 0 -- -- 97
2020-01-10 06:00:00 6.5 0 Calma 4 Sudoeste 0 -- -- 97
2020-01-10 05:00:00 6 0 Calma 4 Noroeste 0 -- -- 97
2020-01-10 04:00:00 5.4 0 Calma 5 Sudeste 0 -- -- 96
2020-01-10 03:00:00 5.1 0 Calma 5 Norte 0 -- -- 96
2020-01-10 02:00:00 4.9 0 Calma 2 Sudeste 0 -- -- 95
2020-01-10 01:00:00 5.6 2 Sudeste 2 Sudeste 0 -- -- 95
2020-01-10 00:00:00 5.2 0 Calma 2 Este 0 -- -- 95
2020-01-09 23:00:00 4.6 0 Calma 4 Noroeste 0 -- -- 93
2020-01-09 22:00:00 5.6 3 Noroeste 6 Norte 0 -- -- 92
2020-01-09 21:00:00 6.8 3 Noroeste 5 Noroeste 0 -- -- 90
2020-01-09 20:00:00 8.2 0 Calma 5 Noroeste 0 -- -- 86
2020-01-09 19:00:00 10.5 0 Calma 6 Noroeste 0 -- -- 79
2020-01-09 18:00:00 13.4 4 Noroeste 12 Oeste 0 -- -- 69
2020-01-09 17:00:00 15 5 Oeste 14 Oeste 0 -- -- 64
2020-01-09 16:00:00 15 8 Oeste 14 Oeste 0 -- -- 64
2020-01-09 15:00:00 14.9 3 Noroeste 6 Noroeste 0 -- -- 64
2020-01-09 14:00:00 13.2 0 Calma 7 Sur 0 -- -- 65
2020-01-09 13:00:00 10.9 4 Sur 8 Sudeste 0 -- -- 71
2020-01-09 12:00:00 7.8 5 Sur 7 Sur 0 -- -- 90
2020-01-09 11:00:00 4.2 0 Calma 4 Sur 0 -- -- 98
2020-01-09 10:00:00 1.6 2 Sur 3 Sudeste 0 -- -- 98
2020-01-09 09:00:00 1 2 Norte 3 Norte 0 -- -- 98
2020-01-09 08:00:00 0.9 0 Calma 3 Oeste 0 -- -- 98
2020-01-09 07:00:00 1 0 Calma 3 Sudoeste 0 -- -- 97
2020-01-09 06:00:00 1 0 Calma 3 Sur 0 -- -- 96
2020-01-09 05:00:00 1.5 0 Calma 2 Sudoeste 0 -- -- 96
2020-01-09 04:00:00 2.3 2 Noroeste 3 Noroeste 0 -- -- 96
2020-01-09 03:00:00 2.3 0 Calma 4 Sudoeste 0 -- -- 95
2020-01-09 02:00:00 2.9 0 Calma 4 Norte 0 -- -- 95
2020-01-09 01:00:00 3.4 0 Calma 2 Noroeste 0 -- -- 95
2020-01-09 00:00:00 4.1 2 Norte 4 Norte 0 -- -- 94
2020-01-08 23:00:00 4.8 2 Norte 4 Norte 0 -- -- 93
2020-01-08 22:00:00 5.5 0 Calma 0 Calma 0 -- -- 90
2020-01-08 21:00:00 6.4 0 Calma 5 Noroeste 0 -- -- 88
2020-01-08 20:00:00 8 0 Calma 7 Noroeste 0 -- -- 83
2020-01-08 19:00:00 10.2 3 Norte 5 Norte 0 -- -- 73
2020-01-08 18:00:00 14.9 0 Calma 3 Sur 0 -- -- 57
2020-01-08 17:00:00 17.5 2 Sur 7 Sur 0 -- -- 48
2020-01-08 16:00:00 17.1 5 Sur 14 Sudeste 0 -- -- 48
2020-01-08 15:00:00 15.7 3 Sur 9 Sudeste 0 -- -- 49
2020-01-08 14:00:00 13.8 6 Sur 10 Sur 0 -- -- 56
2020-01-08 13:00:00 12.1 6 Sudeste 11 Sudeste 0 -- -- 63
2020-01-08 12:00:00 9.5 5 Este 16 Sudeste 0 -- -- 75
2020-01-08 11:00:00 5.3 4 Sudeste 8 Este 0.2 -- -- 98
2020-01-08 10:00:00 1.4 0 Calma 3 Norte 0 -- -- 99
2020-01-08 09:00:00 -0.2 0 Calma 3 Norte 0 -- -- 98
2020-01-08 08:00:00 -0.2 0 Calma 4 Norte 0 -- -- 97
2020-01-08 07:00:00 0 0 Calma 2 Este 0 -- -- 97
2020-01-08 06:00:00 0 0 Calma 2 Sur 0 -- -- 97
2020-01-08 05:00:00 0.6 0 Calma 2 Norte 0 -- -- 96
2020-01-08 04:00:00 1.3 0 Calma 2 Sudeste 0 -- -- 96
2020-01-08 03:00:00 1.6 0 Calma 2 Este 0 -- -- 96
2020-01-08 02:00:00 2.1 0 Calma 2 Norte 0 -- -- 95
2020-01-08 01:00:00 2.7 0 Calma 2 Noroeste 0 -- -- 95
2020-01-08 00:00:00 3.5 0 Calma 0 Calma 0 -- -- 94
2020-01-07 23:00:00 4.3 0 Calma 2 Norte 0 -- -- 93
2020-01-07 22:00:00 5 0 Calma 3 Norte 0 -- -- 91
2020-01-07 21:00:00 6.3 0 Calma 3 Norte 0 -- -- 89
2020-01-07 20:00:00 7.8 2 Norte 4 Norte 0 -- -- 84
2020-01-07 19:00:00 10.4 2 Norte 8 Noroeste 0 -- -- 76
2020-01-07 18:00:00 14.5 2 Noroeste 4 Sur 0 -- -- 60
2020-01-07 17:00:00 17.6 3 Sur 6 Sudeste 0 -- -- 52
2020-01-07 16:00:00 16.8 3 Sudeste 9 Este 0 -- -- 50
2020-01-07 15:00:00 15.9 3 Sudeste 10 Este 0 -- -- 55
2020-01-07 14:00:00 13.9 7 Sudeste 13 Sudeste 0 -- -- 62
2020-01-07 13:00:00 12.3 3 Sudeste 13 Este 0 -- -- 68
2020-01-07 12:00:00 9 6 Este 16 Este 0 -- -- 85
2020-01-07 11:00:00 5.4 0 Calma 5 Sur 0 -- -- 100
2020-01-07 10:00:00 1.3 0 Calma 2 Sudeste 0 -- -- 99
2020-01-07 09:00:00 0.3 0 Calma 4 Norte 0 -- -- 98
2020-01-07 08:00:00 0.6 0 Calma 3 Noroeste 0 -- -- 99
2020-01-07 07:00:00 0.7 0 Calma 4 Norte 0 -- -- 98
2020-01-07 06:00:00 0.8 0 Calma 5 Norte 0.2 -- -- 98
2020-01-07 05:00:00 1.3 0 Calma 4 Noroeste 0 -- -- 97
2020-01-07 04:00:00 1.6 0 Calma 4 Norte 0 -- -- 97
2020-01-07 03:00:00 2.2 2 Norte 5 Norte 0 -- -- 96
2020-01-07 02:00:00 2.8 0 Calma 2 Noroeste 0 -- -- 96
2020-01-07 01:00:00 2.8 0 Calma 3 Sur 0 -- -- 95
2020-01-07 00:00:00 3.5 2 Sur 3 Sur 0 -- -- 95
2020-01-06 23:00:00 4.2 0 Calma 2 Sudeste 0 -- -- 94
2020-01-06 22:00:00 4.9 2 Norte 4 Norte 0 -- -- 93
2020-01-06 21:00:00 6 2 Norte 4 Norte 0 -- -- 91
2020-01-06 20:00:00 7.5 2 Norte 3 Noroeste 0 -- -- 87
2020-01-06 19:00:00 9.7 0 Calma 6 Noroeste 0 -- -- 81
2020-01-06 18:00:00 13.6 0 Calma 2 Noroeste 0 -- -- 68
2020-01-06 17:00:00 16.1 0 Calma 6 Sudeste 0 -- -- 60
2020-01-06 16:00:00 15.7 3 Oeste 7 Sur 0 -- -- 61
2020-01-06 15:00:00 14.7 0 Calma 8 Noroeste 0 -- -- 68
2020-01-06 14:00:00 12.2 0 Calma 7 Sur 0 -- -- 75
2020-01-06 13:00:00 9.2 5 Sur 7 Sudoeste 0 -- -- 93
2020-01-06 12:00:00 5.6 2 Sur 5 Sur 0 -- -- 100
2020-01-06 11:00:00 2.1 0 Calma 5 Sudeste 0 -- -- 100
2020-01-06 10:00:00 0.9 2 Sur 4 Sudeste 0 -- -- 99